createdAt,value
2023-07-12T00:04:01.103Z,1.98
2023-07-12T00:09:05.507Z,1.92
2023-07-12T00:14:10.521Z,1.25
2023-07-12T00:19:15.961Z,1.70
2023-07-12T00:24:19.521Z,1.48
2023-07-12T00:29:24.358Z,1.50
2023-07-12T00:34:27.897Z,2.13
2023-07-12T00:39:34.172Z,1.58
2023-07-12T00:44:47.054Z,1.60
2023-07-12T00:49:52.920Z,1.80
2023-07-12T00:54:59.363Z,1.50
2023-07-12T01:00:12.254Z,1.40
2023-07-12T01:05:17.890Z,1.73
2023-07-12T01:10:21.342Z,1.25
2023-07-12T01:15:27.130Z,1.42
2023-07-12T01:20:37.682Z,1.60
2023-07-12T01:30:48.195Z,1.02
2023-07-12T01:35:51.856Z,1.13
2023-07-12T01:40:56.898Z,1.65
2023-07-12T01:46:00.682Z,1.23
2023-07-12T01:51:04.920Z,1.23
2023-07-12T01:56:09.971Z,1.23
2023-07-12T02:01:14.112Z,1.48
2023-07-12T02:06:17.894Z,1.25
2023-07-12T02:11:23.510Z,1.60
2023-07-12T02:16:27.555Z,1.40
2023-07-12T02:21:31.868Z,1.75
2023-07-12T02:26:37.326Z,1.75
2023-07-12T02:31:40.908Z,1.50
2023-07-12T02:36:44.918Z,1.55
2023-07-12T02:41:50.658Z,1.50
2023-07-12T02:46:54.687Z,1.77
2023-07-12T02:51:58.472Z,1.40
2023-07-12T02:57:09.733Z,1.83
2023-07-12T03:02:14.985Z,1.77
2023-07-12T03:07:19.068Z,1.70
2023-07-12T03:12:24.320Z,1.58
2023-07-12T03:17:28.297Z,1.58
2023-07-12T03:22:32.133Z,1.45
2023-07-12T03:27:37.625Z,1.48
2023-07-12T03:32:41.923Z,1.67
2023-07-12T03:37:46.046Z,1.90
2023-07-12T03:42:51.110Z,1.83
2023-07-12T03:47:54.602Z,1.83
2023-07-12T03:52:58.223Z,2.03
2023-07-12T03:58:03.592Z,2.50
2023-07-12T04:03:07.180Z,2.92
2023-07-12T04:08:12.916Z,2.33
2023-07-12T04:13:18.315Z,2.25
2023-07-12T04:18:22.405Z,2.25
2023-07-12T04:23:26.444Z,2.08
2023-07-12T04:28:33.194Z,2.40
2023-07-12T04:33:37.259Z,1.67
2023-07-12T04:38:41.226Z,2.22
2023-07-12T04:43:46.159Z,2.50
2023-07-12T04:48:50.407Z,2.20
2023-07-12T04:53:55.672Z,2.60
2023-07-12T04:59:01.567Z,2.88
2023-07-12T05:04:06.669Z,2.03
2023-07-12T05:09:11.210Z,2.92
2023-07-12T05:14:17.660Z,2.78
2023-07-12T05:19:21.688Z,2.28
2023-07-12T05:24:26.228Z,2.38
2023-07-12T05:29:35.428Z,3.05
2023-07-12T05:34:39.535Z,3.15
2023-07-12T05:39:43.444Z,2.60
2023-07-12T05:44:48.951Z,2.88
2023-07-12T05:49:56.746Z,2.50
2023-07-12T05:55:01.862Z,2.78
2023-07-12T06:00:10.207Z,2.65
2023-07-12T06:05:15.159Z,2.95
2023-07-12T06:10:20.012Z,2.78
2023-07-12T06:15:26.118Z,2.88
2023-07-12T06:20:30.280Z,3.22
2023-07-12T06:25:34.415Z,3.17
2023-07-12T06:30:39.818Z,3.30
2023-07-12T06:35:44.002Z,3.95
2023-07-12T06:40:49.678Z,3.17
2023-07-12T06:45:56.666Z,3.40
2023-07-12T06:51:03.821Z,3.90
2023-07-12T06:56:08.282Z,2.70
2023-07-12T07:01:14.862Z,3.30
2023-07-12T07:06:21.813Z,2.92
2023-07-12T07:11:25.803Z,3.20
2023-07-12T07:16:31.730Z,2.60
2023-07-12T07:21:35.900Z,3.30
2023-07-12T07:26:40.398Z,3.55
2023-07-12T07:31:46.410Z,3.33
2023-07-12T07:36:50.704Z,2.38
2023-07-12T07:41:54.656Z,2.88
2023-07-12T07:47:00.710Z,2.50
2023-07-12T07:52:05.518Z,2.75
2023-07-12T07:57:10.151Z,2.53
2023-07-12T08:02:15.990Z,2.35
2023-07-12T08:07:20.377Z,2.00
2023-07-12T08:12:24.667Z,1.73
2023-07-12T08:17:31.283Z,1.85
2023-07-12T08:22:35.519Z,2.28
2023-07-12T08:27:40.930Z,2.10
2023-07-12T08:32:46.614Z,1.88
2023-07-12T08:37:51.099Z,2.35
2023-07-12T08:42:55.070Z,1.95
2023-07-12T08:48:05.415Z,2.10
2023-07-12T08:53:11.954Z,2.35
2023-07-12T08:58:21.602Z,2.00
2023-07-12T09:03:27.638Z,2.55
2023-07-12T09:08:36.321Z,2.45
2023-07-12T09:13:41.869Z,1.75
2023-07-12T09:18:50.508Z,1.85
2023-07-12T09:23:57.111Z,2.25
2023-07-12T09:29:07.916Z,1.85
2023-07-12T09:34:22.107Z,1.63
2023-07-12T09:39:27.368Z,1.73
2023-07-12T09:44:32.736Z,1.77
2023-07-12T09:49:46.167Z,1.48
2023-07-12T09:54:55.662Z,1.98
2023-07-12T10:00:06.072Z,1.90
2023-07-12T10:05:18.798Z,1.77
2023-07-12T10:10:33.867Z,1.92
2023-07-12T10:15:42.310Z,2.13
2023-07-12T10:20:49.037Z,2.00
2023-07-12T10:25:58.989Z,2.15
2023-07-12T10:31:11.591Z,2.00
2023-07-12T10:36:21.505Z,2.05
2023-07-12T10:46:38.737Z,2.30
2023-07-12T10:51:47.214Z,1.85
2023-07-12T10:56:54.913Z,1.60
2023-07-12T11:02:11.364Z,1.98
2023-07-12T11:07:37.723Z,2.75
2023-07-12T11:12:48.201Z,2.30
2023-07-12T11:18:01.197Z,1.77
2023-07-12T11:23:32.212Z,2.20
2023-07-12T11:28:44.398Z,2.00
2023-07-12T11:33:52.559Z,2.42
2023-07-12T11:38:59.996Z,2.65
2023-07-12T11:44:06.823Z,1.90
2023-07-12T11:49:18.305Z,2.13
2023-07-12T11:54:26.648Z,2.22
2023-07-12T11:59:33.907Z,2.10
2023-07-12T12:04:37.802Z,2.58
2023-07-12T12:09:47.549Z,2.95
2023-07-12T12:14:53.364Z,2.75
2023-07-12T12:20:05.646Z,2.97
2023-07-12T12:25:20.684Z,2.40
2023-07-12T12:30:27.920Z,2.47
2023-07-12T12:35:32.652Z,2.47
2023-07-12T12:40:55.364Z,2.70
2023-07-12T13:03:25.679Z,2.53
2023-07-12T13:17:33.368Z,2.70
2023-07-12T13:22:45.174Z,2.63
2023-07-12T13:27:58.053Z,2.45
2023-07-12T13:33:04.718Z,2.05
2023-07-12T13:48:29.541Z,2.23
2023-07-12T13:53:34.555Z,2.58
2023-07-12T13:59:02.150Z,2.17
2023-07-12T14:04:06.786Z,2.10
2023-07-12T14:09:13.748Z,2.13
2023-07-12T14:14:22.682Z,2.53
2023-07-12T14:19:26.962Z,2.10
2023-07-12T14:24:32.374Z,2.58
2023-07-12T14:34:49.314Z,2.17
2023-07-12T14:39:55.936Z,2.13
2023-07-12T14:45:05.913Z,2.80
2023-07-12T14:50:14.158Z,1.77
2023-07-12T14:55:21.421Z,2.03
2023-07-12T15:00:28.119Z,1.90
2023-07-12T15:05:33.725Z,2.00
2023-07-12T15:10:38.675Z,1.80
2023-07-12T15:15:44.307Z,2.10
2023-07-12T15:20:53.456Z,1.80
2023-07-12T15:25:58.146Z,2.17
2023-07-12T15:31:07.194Z,1.98
2023-07-12T15:36:12.967Z,1.63
2023-07-12T15:41:20.481Z,2.00
2023-07-12T15:46:28.768Z,1.52
2023-07-12T15:51:38.419Z,1.63
2023-07-12T15:56:46.112Z,1.70
2023-07-12T16:01:52.805Z,1.50
2023-07-12T16:06:57.696Z,1.67
2023-07-12T16:12:01.514Z,2.00
2023-07-12T16:17:08.042Z,1.80
2023-07-12T16:22:16.634Z,2.25
2023-07-12T16:27:23.409Z,2.33
2023-07-12T16:32:30.081Z,1.83
2023-07-12T16:37:33.684Z,1.48
2023-07-12T16:42:37.197Z,1.42
2023-07-12T16:47:42.964Z,1.40
2023-07-12T16:52:47.749Z,1.48
2023-07-12T16:57:52.075Z,1.27
2023-07-12T17:02:58.030Z,1.77
2023-07-12T17:08:02.095Z,1.25
2023-07-12T17:13:16.102Z,1.70
2023-07-12T17:18:21.849Z,1.83
2023-07-12T17:23:28.617Z,1.38
2023-07-12T17:28:33.367Z,1.55
2023-07-12T17:33:39.385Z,1.55
2023-07-12T17:38:43.378Z,1.70
2023-07-12T17:43:47.284Z,1.50
2023-07-12T17:48:53.504Z,0.88
2023-07-12T17:53:57.679Z,1.40
2023-07-12T17:59:02.015Z,1.40
2023-07-12T18:04:07.518Z,1.08
2023-07-12T18:09:11.643Z,1.58
2023-07-12T18:14:18.395Z,1.10
2023-07-12T18:19:24.184Z,1.05
2023-07-12T18:24:28.145Z,1.08
2023-07-12T18:29:32.496Z,1.00
2023-07-12T18:34:38.853Z,1.17
2023-07-12T18:39:44.426Z,0.80
2023-07-12T18:44:48.525Z,1.02
2023-07-12T18:49:57.297Z,0.75
2023-07-12T18:55:01.898Z,0.98
2023-07-12T19:00:08.301Z,1.02
2023-07-12T19:05:22.339Z,0.80
2023-07-12T19:10:33.771Z,0.80
2023-07-12T19:15:39.719Z,0.93
2023-07-12T19:20:45.465Z,0.98
2023-07-12T19:25:49.803Z,1.02
2023-07-12T19:30:54.305Z,0.80
2023-07-12T19:35:59.694Z,1.17
2023-07-12T19:41:03.288Z,0.95
2023-07-12T19:46:08.010Z,0.95
2023-07-12T19:51:19.142Z,0.95
2023-07-12T19:56:23.618Z,0.95
2023-07-12T20:01:29.723Z,1.00
2023-07-12T20:06:36.101Z,0.95
2023-07-12T20:11:42.651Z,0.93
2023-07-12T20:16:46.718Z,0.88
2023-07-12T20:21:52.409Z,0.82
2023-07-12T20:26:57.346Z,0.90
2023-07-12T20:32:04.645Z,0.70
2023-07-12T20:37:10.743Z,1.00
2023-07-12T20:42:21.228Z,0.80
2023-07-12T20:47:27.623Z,0.68
2023-07-12T20:52:33.679Z,0.80
2023-07-12T20:57:39.616Z,0.60
2023-07-12T21:02:44.436Z,1.30
2023-07-12T21:07:49.988Z,1.30
2023-07-12T21:12:53.821Z,1.02
2023-07-12T21:17:57.774Z,1.05
2023-07-12T21:23:02.843Z,0.90
2023-07-12T21:28:07.023Z,1.80
2023-07-12T21:33:11.223Z,1.10
2023-07-12T21:38:17.153Z,1.30
2023-07-12T21:43:21.629Z,1.27
2023-07-12T21:48:25.755Z,0.90
2023-07-12T21:53:31.235Z,1.15
2023-07-12T21:58:35.199Z,0.93
2023-07-12T22:03:39.143Z,1.00
2023-07-12T22:08:44.246Z,1.20
2023-07-12T22:13:50.914Z,1.00
2023-07-12T22:18:54.653Z,1.20
2023-07-12T22:23:59.610Z,0.93
2023-07-12T22:29:03.547Z,1.00
2023-07-12T22:34:06.996Z,0.98
2023-07-12T22:39:12.204Z,0.90
2023-07-12T22:44:16.075Z,1.00
2023-07-12T22:49:19.903Z,0.93
2023-07-12T22:54:25.017Z,0.93
2023-07-12T22:59:28.471Z,1.00
2023-07-12T23:04:32.019Z,0.98
2023-07-12T23:09:37.135Z,0.90
2023-07-12T23:14:40.606Z,0.75
2023-07-12T23:19:44.136Z,1.15
2023-07-12T23:24:54.384Z,0.60
2023-07-12T23:29:58.240Z,1.02
2023-07-12T23:35:03.358Z,0.70
2023-07-12T23:40:10.434Z,0.95
2023-07-12T23:45:14.014Z,0.80
2023-07-12T23:50:19.084Z,0.50
2023-07-12T23:55:24.097Z,0.82
